Terminal Aerodrome Forecast
Issued by NWS

Home | Current Version | Previous Version | Text Only | Print | Product List | Glossary On
Versions: 1 2 3 4 5 6 7 8 9 10 11 12 13 14
000
FTUS45 KABQ 190700 AAA
TAFLVS
TAF AMD
KLVS 190701Z 1907/2006 VRB05KT P6SM FEW007 BKN030
      TEMPO 1907/1910 SCT005 BKN015
     FM191000 27005KT P6SM VCFG SCT004 BKN015 OVC030
     FM191500 24005KT P6SM VCFG SCT007 OVC025
     FM191800 18010KT P6SM FEW015 BKN100
     FM192300 12010KT P6SM SCT120=

USA.gov is the U.S. government's official web portal to all federal, state and local government web resources and services.